KCFE

Buffalo Municipal Airport

Buffalo, Minnesota, USA
METAR KCFE 211955Z AUTO 34004KT 10SM OVC080 02/M02 A2997 RMK AO2 T00201017
Observed Flight Rules
Jan-21 @ 19:55 UTC (19 minutes ago) Visual Flight Rules
Wind Visibility Clouds
340° at 4 knots 10 miles
  • Overcast at 8,000' AGL
Temperatures Readings
Current 2°C / 36°F
Dewpoint -2°C / 28°F
Humidity 75%
Altimeter 29.97" Hg
Pressure 1015 hPa
Elevation 295
METAR KCFE 211955Z AUTO 34004KT 10SM OVC080 02/M02 A2997 RMK AO2 T00201017
Observed Flight Rules
Jan-21 @ 19:55 UTC
(19 minutes ago)
VFR
Wind Visibility
340° at 4 knots 10 miles
Clouds
  • Overcast at 8,000' AGL
Temperature Dewpoint
2°C / 36°F -2°C / 28°F
Humidity Altimeter Pressure
75% 29.97" Hg 1015 hPa